Airport Name : Palermo

Other Name : Palermo

ICAO : LICJ

IATA : PMO

FAA :

Latitude : 38.175958

Longitude : 13.091019

Country : Italy

Local Date and Time : 19 Jan 2021 14:57

 

TAF (Terminal Aerodrome Forecast)

TAF LICJ 191100Z 1912/2012 20010KT CAVOK

 

METAR (METeorological Aerodrome Report)

LICJ 191350Z 21012KT CAVOK 14/M00 Q1027

LICJ 191320Z 20013KT CAVOK 14/02 Q1027

LICJ 191250Z 21013KT CAVOK 14/02 Q1027

LICJ 191220Z 21012KT CAVOK 14/M00 Q1027

LICJ 191150Z 20010KT CAVOK 14/01 Q1028

LICJ 191120Z 19009KT 160V220 CAVOK 13/00 Q1028

LICJ 191050Z 20010KT CAVOK 13/00 Q1029

LICJ 191020Z 19010KT CAVOK 13/M01 Q1029

To Charter a Jet Click here.